sensor_id;sensor_type;location;lat;lon;timestamp;pressure;altitude;pressure_sealevel;temperature;humidity
47710;BME280;33473;51.640;5.892;2023-02-10T00:12:35;103400;;;6.8;55.0
47710;BME280;33473;51.640;5.892;2023-02-10T00:25:55;103400;;;6.7;55.0
47710;BME280;33473;51.640;5.892;2023-02-10T00:39:14;103500;;;6.8;56.0
47710;BME280;33473;51.640;5.892;2023-02-10T00:52:34;103500;;;6.7;55.0
47710;BME280;33473;51.640;5.892;2023-02-10T01:05:54;103500;;;6.5;55.0
47710;BME280;33473;51.640;5.892;2023-02-10T01:19:13;103500;;;6.5;55.0
47710;BME280;33473;51.640;5.892;2023-02-10T01:32:33;103500;;;6.5;55.0
47710;BME280;33473;51.640;5.892;2023-02-10T01:45:53;103500;;;6.3;55.0
47710;BME280;33473;51.640;5.892;2023-02-10T01:59:13;103500;;;6.3;55.0
47710;BME280;33473;51.640;5.892;2023-02-10T02:12:32;103500;;;6.3;55.0
47710;BME280;33473;51.640;5.892;2023-02-10T02:25:52;103500;;;6.1;55.0
47710;BME280;33473;51.640;5.892;2023-02-10T02:39:12;103500;;;5.9;54.0
47710;BME280;33473;51.640;5.892;2023-02-10T02:52:31;103500;;;5.6;54.0
47710;BME280;33473;51.640;5.892;2023-02-10T03:05:51;103500;;;5.6;55.0
47710;BME280;33473;51.640;5.892;2023-02-10T03:19:11;103500;;;5.5;54.0
47710;BME280;33473;51.640;5.892;2023-02-10T03:32:30;103500;;;5.4;54.0
47710;BME280;33473;51.640;5.892;2023-02-10T03:45:50;103500;;;5.4;55.0
47710;BME280;33473;51.640;5.892;2023-02-10T03:59:10;103500;;;5.6;55.0
47710;BME280;33473;51.640;5.892;2023-02-10T04:12:29;103500;;;5.6;55.0
47710;BME280;33473;51.640;5.892;2023-02-10T04:25:49;103500;;;5.6;55.0
47710;BME280;33473;51.640;5.892;2023-02-10T04:39:09;103500;;;5.7;55.0
47710;BME280;33473;51.640;5.892;2023-02-10T04:52:28;103500;;;5.7;56.0
47710;BME280;33473;51.640;5.892;2023-02-10T05:05:48;103500;;;5.7;56.0
47710;BME280;33473;51.640;5.892;2023-02-10T05:19:08;103500;;;5.9;56.0
47710;BME280;33473;51.640;5.892;2023-02-10T05:32:27;103500;;;6.3;56.0
47710;BME280;33473;51.640;5.892;2023-02-10T05:45:47;103500;;;6.5;57.0
47710;BME280;33473;51.640;5.892;2023-02-10T05:59:07;103500;;;6.7;57.0
47710;BME280;33473;51.640;5.892;2023-02-10T06:12:27;103500;;;6.9;57.0
47710;BME280;33473;51.640;5.892;2023-02-10T06:25:46;103500;;;7.0;57.0
47710;BME280;33473;51.640;5.892;2023-02-10T06:39:06;103500;;;7.2;57.0
47710;BME280;33473;51.640;5.892;2023-02-10T06:52:25;103500;;;7.3;57.0
47710;BME280;33473;51.640;5.892;2023-02-10T07:05:45;103500;;;7.4;57.0
47710;BME280;33473;51.640;5.892;2023-02-10T07:19:05;103600;;;7.3;58.0
47710;BME280;33473;51.640;5.892;2023-02-10T07:32:25;103600;;;7.6;58.0
47710;BME280;33473;51.640;5.892;2023-02-10T07:45:44;103600;;;7.6;58.0
47710;BME280;33473;51.640;5.892;2023-02-10T07:59:04;103600;;;7.8;59.0
47710;BME280;33473;51.640;5.892;2023-02-10T08:12:23;103600;;;8.2;59.0
47710;BME280;33473;51.640;5.892;2023-02-10T08:25:43;103600;;;8.2;59.0
47710;BME280;33473;51.640;5.892;2023-02-10T08:39:03;103600;;;8.3;59.0
47710;BME280;33473;51.640;5.892;2023-02-10T08:52:22;103600;;;8.2;59.0
47710;BME280;33473;51.640;5.892;2023-02-10T09:05:42;103600;;;8.7;59.0
47710;BME280;33473;51.640;5.892;2023-02-10T09:19:02;103600;;;8.9;58.0
47710;BME280;33473;51.640;5.892;2023-02-10T09:32:21;103600;;;9.5;58.0
47710;BME280;33473;51.640;5.892;2023-02-10T09:45:41;103600;;;9.0;57.0
47710;BME280;33473;51.640;5.892;2023-02-10T09:59:01;103600;;;9.5;59.0
47710;BME280;33473;51.640;5.892;2023-02-10T10:12:20;103600;;;12.1;54.0
47710;BME280;33473;51.640;5.892;2023-02-10T10:25:40;103600;;;13.0;49.0
47710;BME280;33473;51.640;5.892;2023-02-10T10:39:00;103600;;;13.4;48.0
47710;BME280;33473;51.640;5.892;2023-02-10T10:52:19;103600;;;15.3;42.0
47710;BME280;33473;51.640;5.892;2023-02-10T11:05:39;103600;;;15.4;40.0
47710;BME280;33473;51.640;5.892;2023-02-10T11:18:59;103600;;;15.4;40.0
47710;BME280;33473;51.640;5.892;2023-02-10T11:32:18;103600;;;13.8;44.0
47710;BME280;33473;51.640;5.892;2023-02-10T11:45:38;103500;;;14.4;41.0
47710;BME280;33473;51.640;5.892;2023-02-10T11:58:58;103500;;;14.9;40.0
47710;BME280;33473;51.640;5.892;2023-02-10T12:12:18;103500;;;13.8;42.0
47710;BME280;33473;51.640;5.892;2023-02-10T12:25:37;103500;;;12.9;42.0
47710;BME280;33473;51.640;5.892;2023-02-10T12:38:57;103500;;;12.7;42.0
47710;BME280;33473;51.640;5.892;2023-02-10T12:52:17;103500;;;12.7;42.0
47710;BME280;33473;51.640;5.892;2023-02-10T13:05:36;103500;;;11.5;43.0
47710;BME280;33473;51.640;5.892;2023-02-10T13:18:56;103500;;;12.0;46.0
47710;BME280;33473;51.640;5.892;2023-02-10T13:32:16;103500;;;12.0;47.0
47710;BME280;33473;51.640;5.892;2023-02-10T13:45:35;103500;;;12.0;46.0
47710;BME280;33473;51.640;5.892;2023-02-10T13:58:55;103400;;;11.7;48.0
47710;BME280;33473;51.640;5.892;2023-02-10T14:12:15;103400;;;12.1;47.0
47710;BME280;33473;51.640;5.892;2023-02-10T14:25:34;103400;;;13.0;45.0
47710;BME280;33473;51.640;5.892;2023-02-10T14:38:54;103400;;;12.3;46.0
47710;BME280;33473;51.640;5.892;2023-02-10T15:32:13;103400;;;11.3;49.0
47710;BME280;33473;51.640;5.892;2023-02-10T15:45:33;103400;;;11.8;48.0
47710;BME280;33473;51.640;5.892;2023-02-10T15:58:52;103400;;;10.7;50.0
47710;BME280;33473;51.640;5.892;2023-02-10T16:12:12;103400;;;11.4;49.0
47710;BME280;33473;51.640;5.892;2023-02-10T16:25:32;103400;;;10.8;52.0
47710;BME280;33473;51.640;5.892;2023-02-10T16:38:51;103400;;;10.8;52.0
47710;BME280;33473;51.640;5.892;2023-02-10T16:52:11;103400;;;11.5;50.0
47710;BME280;33473;51.640;5.892;2023-02-10T17:05:31;103400;;;11.7;50.0
47710;BME280;33473;51.640;5.892;2023-02-10T17:18:50;103400;;;11.7;50.0
47710;BME280;33473;51.640;5.892;2023-02-10T17:32:10;103400;;;11.4;51.0
47710;BME280;33473;51.640;5.892;2023-02-10T17:45:30;103400;;;11.3;52.0
47710;BME280;33473;51.640;5.892;2023-02-10T17:58:49;103400;;;11.4;52.0
47710;BME280;33473;51.640;5.892;2023-02-10T18:12:09;103400;;;11.6;52.0
47710;BME280;33473;51.640;5.892;2023-02-10T18:25:29;103400;;;11.2;53.0
47710;BME280;33473;51.640;5.892;2023-02-10T18:38:48;103400;;;10.8;54.0
47710;BME280;33473;51.640;5.892;2023-02-10T18:52:08;103400;;;11.6;53.0
47710;BME280;33473;51.640;5.892;2023-02-10T19:05:28;103300;;;11.3;55.0
47710;BME280;33473;51.640;5.892;2023-02-10T19:18:47;103300;;;11.5;54.0
47710;BME280;33473;51.640;5.892;2023-02-10T20:25:26;103400;;;10.8;57.0
47710;BME280;33473;51.640;5.892;2023-02-10T20:38:46;103400;;;11.2;56.0
47710;BME280;33473;51.640;5.892;2023-02-10T20:38:46;103400;;;11.2;56.0
47710;BME280;33473;51.640;5.892;2023-02-10T20:52:05;103400;;;11.0;57.0
47710;BME280;33473;51.640;5.892;2023-02-10T20:52:05;103400;;;11.0;57.0
47710;BME280;33473;51.640;5.892;2023-02-10T21:05:25;103300;;;11.1;57.0
47710;BME280;33473;51.640;5.892;2023-02-10T21:05:25;103300;;;11.1;57.0
47710;BME280;33473;51.640;5.892;2023-02-10T21:18:45;103300;;;10.7;58.0
47710;BME280;33473;51.640;5.892;2023-02-10T21:18:45;103300;;;10.7;58.0
47710;BME280;33473;51.640;5.892;2023-02-10T21:32:04;103300;;;10.7;58.0
47710;BME280;33473;51.640;5.892;2023-02-10T21:32:04;103300;;;10.7;58.0
47710;BME280;33473;51.640;5.892;2023-02-10T21:45:24;103300;;;10.9;57.0
47710;BME280;33473;51.640;5.892;2023-02-10T21:45:24;103300;;;10.9;57.0
47710;BME280;33473;51.640;5.892;2023-02-10T21:58:44;103400;;;10.7;57.0
47710;BME280;33473;51.640;5.892;2023-02-10T21:58:44;103400;;;10.7;57.0
47710;BME280;33473;51.640;5.892;2023-02-10T22:12:03;103300;;;10.6;58.0
47710;BME280;33473;51.640;5.892;2023-02-10T22:12:03;103300;;;10.6;58.0
47710;BME280;33473;51.640;5.892;2023-02-10T22:25:23;103300;;;10.8;57.0
47710;BME280;33473;51.640;5.892;2023-02-10T22:25:23;103300;;;10.8;57.0
47710;BME280;33473;51.640;5.892;2023-02-10T22:38:42;103400;;;10.2;59.0
47710;BME280;33473;51.640;5.892;2023-02-10T22:38:42;103400;;;10.2;59.0
47710;BME280;33473;51.640;5.892;2023-02-10T22:52:02;103400;;;10.4;58.0
47710;BME280;33473;51.640;5.892;2023-02-10T22:52:02;103400;;;10.4;58.0
47710;BME280;33473;51.640;5.892;2023-02-10T23:05:22;103400;;;10.7;57.0
47710;BME280;33473;51.640;5.892;2023-02-10T23:05:22;103400;;;10.7;57.0
47710;BME280;33473;51.640;5.892;2023-02-10T23:18:41;103400;;;10.7;58.0
47710;BME280;33473;51.640;5.892;2023-02-10T23:18:41;103400;;;10.7;58.0
47710;BME280;33473;51.640;5.892;2023-02-10T23:32:01;103300;;;10.9;57.0
47710;BME280;33473;51.640;5.892;2023-02-10T23:32:01;103300;;;10.9;57.0
47710;BME280;33473;51.640;5.892;2023-02-10T23:45:21;103300;;;10.7;58.0
47710;BME280;33473;51.640;5.892;2023-02-10T23:45:21;103300;;;10.7;58.0
47710;BME280;33473;51.640;5.892;2023-02-10T23:58:40;103300;;;10.6;57.0
47710;BME280;33473;51.640;5.892;2023-02-10T23:58:40;103300;;;10.6;57.0
